Terminal Aerodrome Forecast
Issued by NWS Jacksonville, FL

Home | Current Version | Previous Version | Text Only | Print | Product List | Glossary On
Versions: 1 2 3 4 5 6 7 8 9 10 11 12 13 14 15 16 17 18 19
000
FTUS42 KJAX 312352
TAFSSI
TAF
KSSI 312352Z 0100/0124 23007KT P6SM SCT020 BKN200
      TEMPO 0100/0101 1/4SM +TSRA SCT006CB OVC012
     FM011700 18008KT P6SM SCT030
     FM012000 20010KT P6SM VCTS BKN035CB=

USA.gov is the U.S. government's official web portal to all federal, state and local government web resources and services.